sensor_id;sensor_type;location;lat;lon;timestamp;P1;durP1;ratioP1;P2;durP2;ratioP2
80179;SDS011;69505;52.134;5.438;2023-06-14T00:00:41;4.57;;;1.88;;
80179;SDS011;69505;52.134;5.438;2023-06-14T00:03:08;5.82;;;1.85;;
80179;SDS011;69505;52.134;5.438;2023-06-14T00:05:36;4.65;;;2.10;;
80179;SDS011;69505;52.134;5.438;2023-06-14T00:08:07;3.95;;;2.13;;
80179;SDS011;69505;52.134;5.438;2023-06-14T00:10:34;4.82;;;1.60;;
80179;SDS011;69505;52.134;5.438;2023-06-14T00:13:02;3.88;;;1.50;;
80179;SDS011;69505;52.134;5.438;2023-06-14T00:15:33;6.20;;;2.00;;
80179;SDS011;69505;52.134;5.438;2023-06-14T00:18:00;3.22;;;1.55;;
80179;SDS011;69505;52.134;5.438;2023-06-14T00:20:27;3.38;;;1.83;;
80179;SDS011;69505;52.134;5.438;2023-06-14T00:22:55;3.83;;;1.58;;
80179;SDS011;69505;52.134;5.438;2023-06-14T00:25:22;2.97;;;1.50;;
80179;SDS011;69505;52.134;5.438;2023-06-14T00:27:55;6.88;;;1.67;;
80179;SDS011;69505;52.134;5.438;2023-06-14T00:30:23;7.63;;;1.83;;
80179;SDS011;69505;52.134;5.438;2023-06-14T00:32:50;7.18;;;1.60;;
80179;SDS011;69505;52.134;5.438;2023-06-14T00:35:18;3.65;;;1.80;;
80179;SDS011;69505;52.134;5.438;2023-06-14T00:37:44;5.97;;;2.08;;
80179;SDS011;69505;52.134;5.438;2023-06-14T00:40:11;4.43;;;1.88;;
80179;SDS011;69505;52.134;5.438;2023-06-14T00:42:38;5.53;;;1.58;;
80179;SDS011;69505;52.134;5.438;2023-06-14T00:45:05;3.42;;;1.67;;
80179;SDS011;69505;52.134;5.438;2023-06-14T00:47:32;6.60;;;1.80;;
80179;SDS011;69505;52.134;5.438;2023-06-14T00:49:59;4.55;;;2.00;;
80179;SDS011;69505;52.134;5.438;2023-06-14T00:52:26;5.00;;;1.80;;
80179;SDS011;69505;52.134;5.438;2023-06-14T00:54:53;8.18;;;1.67;;
80179;SDS011;69505;52.134;5.438;2023-06-14T00:57:20;6.20;;;1.90;;
80179;SDS011;69505;52.134;5.438;2023-06-14T00:59:48;5.63;;;1.80;;
80179;SDS011;69505;52.134;5.438;2023-06-14T01:02:15;8.63;;;2.10;;
80179;SDS011;69505;52.134;5.438;2023-06-14T01:04:43;3.50;;;1.52;;
80179;SDS011;69505;52.134;5.438;2023-06-14T01:15:01;5.53;;;1.60;;
80179;SDS011;69505;52.134;5.438;2023-06-14T01:17:29;6.50;;;1.77;;
80179;SDS011;69505;52.134;5.438;2023-06-14T01:19:58;3.22;;;1.52;;
80179;SDS011;69505;52.134;5.438;2023-06-14T01:22:27;5.28;;;2.00;;
80179;SDS011;69505;52.134;5.438;2023-06-14T01:24:54;5.55;;;1.92;;
80179;SDS011;69505;52.134;5.438;2023-06-14T01:27:22;3.97;;;1.65;;
80179;SDS011;69505;52.134;5.438;2023-06-14T01:29:55;3.75;;;1.83;;
80179;SDS011;69505;52.134;5.438;2023-06-14T01:32:26;3.75;;;1.75;;
80179;SDS011;69505;52.134;5.438;2023-06-14T01:34:54;4.00;;;1.95;;
80179;SDS011;69505;52.134;5.438;2023-06-14T01:37:21;6.25;;;1.60;;
80179;SDS011;69505;52.134;5.438;2023-06-14T01:39:48;5.55;;;1.77;;
80179;SDS011;69505;52.134;5.438;2023-06-14T01:42:16;10.40;;;1.90;;
80179;SDS011;69505;52.134;5.438;2023-06-14T01:44:44;3.55;;;1.58;;
80179;SDS011;69505;52.134;5.438;2023-06-14T01:47:11;3.05;;;1.60;;
80179;SDS011;69505;52.134;5.438;2023-06-14T01:49:38;7.50;;;1.50;;
80179;SDS011;69505;52.134;5.438;2023-06-14T01:52:05;4.95;;;2.15;;
80179;SDS011;69505;52.134;5.438;2023-06-14T01:54:32;4.15;;;1.95;;
80179;SDS011;69505;52.134;5.438;2023-06-14T01:56:58;7.78;;;1.65;;
80179;SDS011;69505;52.134;5.438;2023-06-14T01:59:25;3.10;;;1.50;;
80179;SDS011;69505;52.134;5.438;2023-06-14T02:01:51;5.50;;;1.73;;
80179;SDS011;69505;52.134;5.438;2023-06-14T02:04:18;6.10;;;1.88;;
80179;SDS011;69505;52.134;5.438;2023-06-14T02:06:45;4.18;;;1.80;;
80179;SDS011;69505;52.134;5.438;2023-06-14T02:09:11;5.95;;;1.85;;
80179;SDS011;69505;52.134;5.438;2023-06-14T02:11:38;6.38;;;1.80;;
80179;SDS011;69505;52.134;5.438;2023-06-14T02:14:04;4.45;;;1.77;;
80179;SDS011;69505;52.134;5.438;2023-06-14T02:16:33;5.72;;;1.60;;
80179;SDS011;69505;52.134;5.438;2023-06-14T02:19:02;4.80;;;1.60;;
80179;SDS011;69505;52.134;5.438;2023-06-14T02:21:29;6.32;;;1.70;;
80179;SDS011;69505;52.134;5.438;2023-06-14T02:23:55;8.90;;;1.77;;
80179;SDS011;69505;52.134;5.438;2023-06-14T02:26:22;4.72;;;1.75;;
80179;SDS011;69505;52.134;5.438;2023-06-14T02:28:49;6.25;;;1.85;;
80179;SDS011;69505;52.134;5.438;2023-06-14T02:31:15;4.82;;;1.50;;
80179;SDS011;69505;52.134;5.438;2023-06-14T02:33:42;6.97;;;1.63;;
80179;SDS011;69505;52.134;5.438;2023-06-14T02:36:09;4.20;;;1.70;;
80179;SDS011;69505;52.134;5.438;2023-06-14T02:38:35;6.88;;;2.05;;
80179;SDS011;69505;52.134;5.438;2023-06-14T02:41:02;5.25;;;1.80;;
80179;SDS011;69505;52.134;5.438;2023-06-14T02:43:28;4.80;;;1.80;;
80179;SDS011;69505;52.134;5.438;2023-06-14T02:45:55;4.57;;;2.30;;
80179;SDS011;69505;52.134;5.438;2023-06-14T02:48:22;4.15;;;1.67;;
80179;SDS011;69505;52.134;5.438;2023-06-14T02:50:49;3.72;;;1.92;;
80179;SDS011;69505;52.134;5.438;2023-06-14T02:53:15;3.90;;;1.77;;
80179;SDS011;69505;52.134;5.438;2023-06-14T02:55:42;3.30;;;1.60;;
80179;SDS011;69505;52.134;5.438;2023-06-14T02:58:08;3.47;;;1.50;;
80179;SDS011;69505;52.134;5.438;2023-06-14T03:00:37;5.47;;;1.67;;
80179;SDS011;69505;52.134;5.438;2023-06-14T03:03:05;3.42;;;1.60;;
80179;SDS011;69505;52.134;5.438;2023-06-14T03:05:48;4.30;;;1.60;;
80179;SDS011;69505;52.134;5.438;2023-06-14T03:08:16;2.70;;;1.50;;
80179;SDS011;69505;52.134;5.438;2023-06-14T03:10:46;4.32;;;1.58;;
80179;SDS011;69505;52.134;5.438;2023-06-14T03:13:13;4.40;;;1.90;;
80179;SDS011;69505;52.134;5.438;2023-06-14T03:15:42;2.92;;;1.40;;
80179;SDS011;69505;52.134;5.438;2023-06-14T03:18:09;8.75;;;1.63;;
80179;SDS011;69505;52.134;5.438;2023-06-14T03:20:36;3.42;;;2.00;;
80179;SDS011;69505;52.134;5.438;2023-06-14T03:23:03;3.47;;;1.92;;
80179;SDS011;69505;52.134;5.438;2023-06-14T03:25:31;3.60;;;1.35;;
80179;SDS011;69505;52.134;5.438;2023-06-14T03:27:59;4.68;;;1.80;;
80179;SDS011;69505;52.134;5.438;2023-06-14T03:30:26;6.57;;;1.70;;
80179;SDS011;69505;52.134;5.438;2023-06-14T03:32:52;4.93;;;1.70;;
80179;SDS011;69505;52.134;5.438;2023-06-14T03:35:19;7.40;;;1.90;;
80179;SDS011;69505;52.134;5.438;2023-06-14T03:37:46;3.13;;;1.42;;
80179;SDS011;69505;52.134;5.438;2023-06-14T03:40:14;4.22;;;1.70;;
80179;SDS011;69505;52.134;5.438;2023-06-14T03:42:42;3.60;;;1.70;;
80179;SDS011;69505;52.134;5.438;2023-06-14T03:45:09;3.80;;;1.63;;
80179;SDS011;69505;52.134;5.438;2023-06-14T03:47:36;2.63;;;1.60;;
80179;SDS011;69505;52.134;5.438;2023-06-14T03:50:02;4.35;;;1.85;;
80179;SDS011;69505;52.134;5.438;2023-06-14T03:52:30;6.45;;;1.63;;
80179;SDS011;69505;52.134;5.438;2023-06-14T03:54:57;5.32;;;1.52;;
80179;SDS011;69505;52.134;5.438;2023-06-14T03:57:29;3.22;;;1.63;;
80179;SDS011;69505;52.134;5.438;2023-06-14T03:59:56;8.63;;;2.25;;
80179;SDS011;69505;52.134;5.438;2023-06-14T04:02:23;4.18;;;1.63;;
80179;SDS011;69505;52.134;5.438;2023-06-14T04:04:50;3.88;;;1.55;;
80179;SDS011;69505;52.134;5.438;2023-06-14T04:07:17;4.30;;;1.50;;
80179;SDS011;69505;52.134;5.438;2023-06-14T04:09:47;4.07;;;1.67;;
80179;SDS011;69505;52.134;5.438;2023-06-14T04:12:15;4.15;;;1.92;;
80179;SDS011;69505;52.134;5.438;2023-06-14T04:14:41;6.88;;;1.63;;
80179;SDS011;69505;52.134;5.438;2023-06-14T04:17:08;6.75;;;1.88;;
80179;SDS011;69505;52.134;5.438;2023-06-14T04:19:35;4.63;;;1.95;;
80179;SDS011;69505;52.134;5.438;2023-06-14T04:22:02;3.17;;;1.80;;
80179;SDS011;69505;52.134;5.438;2023-06-14T04:24:28;6.28;;;1.63;;
80179;SDS011;69505;52.134;5.438;2023-06-14T04:26:58;4.82;;;1.52;;
80179;SDS011;69505;52.134;5.438;2023-06-14T04:29:25;3.72;;;1.80;;
80179;SDS011;69505;52.134;5.438;2023-06-14T04:31:53;6.07;;;1.77;;
80179;SDS011;69505;52.134;5.438;2023-06-14T04:34:22;4.43;;;1.70;;
80179;SDS011;69505;52.134;5.438;2023-06-14T04:36:49;4.30;;;1.60;;
80179;SDS011;69505;52.134;5.438;2023-06-14T04:39:19;4.10;;;1.63;;
80179;SDS011;69505;52.134;5.438;2023-06-14T04:41:49;4.13;;;1.70;;
80179;SDS011;69505;52.134;5.438;2023-06-14T04:44:19;6.57;;;1.70;;
80179;SDS011;69505;52.134;5.438;2023-06-14T04:46:50;4.03;;;2.05;;
80179;SDS011;69505;52.134;5.438;2023-06-14T04:49:17;6.53;;;2.13;;
80179;SDS011;69505;52.134;5.438;2023-06-14T04:51:44;5.32;;;2.03;;
80179;SDS011;69505;52.134;5.438;2023-06-14T04:54:12;5.53;;;2.00;;
80179;SDS011;69505;52.134;5.438;2023-06-14T04:56:41;7.82;;;2.25;;
80179;SDS011;69505;52.134;5.438;2023-06-14T04:59:08;5.53;;;2.10;;
80179;SDS011;69505;52.134;5.438;2023-06-14T05:01:38;5.00;;;1.98;;
80179;SDS011;69505;52.134;5.438;2023-06-14T05:04:04;4.88;;;2.03;;
80179;SDS011;69505;52.134;5.438;2023-06-14T05:06:31;5.53;;;1.90;;
80179;SDS011;69505;52.134;5.438;2023-06-14T05:08:58;6.93;;;2.03;;
80179;SDS011;69505;52.134;5.438;2023-06-14T05:11:24;6.07;;;1.70;;
80179;SDS011;69505;52.134;5.438;2023-06-14T05:13:53;3.45;;;1.50;;
80179;SDS011;69505;52.134;5.438;2023-06-14T05:16:20;3.30;;;1.70;;
80179;SDS011;69505;52.134;5.438;2023-06-14T05:18:49;6.50;;;2.15;;
80179;SDS011;69505;52.134;5.438;2023-06-14T05:21:17;3.67;;;2.13;;
80179;SDS011;69505;52.134;5.438;2023-06-14T05:23:44;6.40;;;2.60;;
80179;SDS011;69505;52.134;5.438;2023-06-14T05:26:11;7.80;;;1.88;;
80179;SDS011;69505;52.134;5.438;2023-06-14T05:28:38;4.95;;;2.03;;
80179;SDS011;69505;52.134;5.438;2023-06-14T05:31:04;5.88;;;1.77;;
80179;SDS011;69505;52.134;5.438;2023-06-14T05:33:31;9.70;;;1.73;;
80179;SDS011;69505;52.134;5.438;2023-06-14T05:35:58;3.13;;;2.03;;
80179;SDS011;69505;52.134;5.438;2023-06-14T05:38:24;5.20;;;1.88;;
80179;SDS011;69505;52.134;5.438;2023-06-14T05:40:51;4.50;;;1.83;;
80179;SDS011;69505;52.134;5.438;2023-06-14T05:43:18;3.33;;;1.83;;
80179;SDS011;69505;52.134;5.438;2023-06-14T05:45:44;3.50;;;1.77;;
80179;SDS011;69505;52.134;5.438;2023-06-14T05:48:11;6.43;;;1.77;;
80179;SDS011;69505;52.134;5.438;2023-06-14T05:50:37;6.57;;;1.80;;
80179;SDS011;69505;52.134;5.438;2023-06-14T05:53:04;3.65;;;1.63;;
80179;SDS011;69505;52.134;5.438;2023-06-14T05:55:31;5.07;;;1.85;;
80179;SDS011;69505;52.134;5.438;2023-06-14T05:57:57;5.78;;;1.70;;
80179;SDS011;69505;52.134;5.438;2023-06-14T06:00:24;5.43;;;1.98;;
80179;SDS011;69505;52.134;5.438;2023-06-14T06:02:50;4.93;;;1.67;;
80179;SDS011;69505;52.134;5.438;2023-06-14T06:05:18;6.18;;;1.58;;
80179;SDS011;69505;52.134;5.438;2023-06-14T06:07:44;4.05;;;1.80;;
80179;SDS011;69505;52.134;5.438;2023-06-14T06:10:11;4.85;;;1.77;;
80179;SDS011;69505;52.134;5.438;2023-06-14T06:12:38;3.92;;;1.70;;
80179;SDS011;69505;52.134;5.438;2023-06-14T06:15:05;3.90;;;1.83;;
80179;SDS011;69505;52.134;5.438;2023-06-14T06:17:32;5.15;;;1.90;;
80179;SDS011;69505;52.134;5.438;2023-06-14T06:20:18;4.03;;;1.70;;
80179;SDS011;69505;52.134;5.438;2023-06-14T06:22:45;6.38;;;2.05;;
80179;SDS011;69505;52.134;5.438;2023-06-14T06:25:12;3.50;;;1.80;;
80179;SDS011;69505;52.134;5.438;2023-06-14T06:27:39;3.97;;;2.20;;
80179;SDS011;69505;52.134;5.438;2023-06-14T06:30:06;5.30;;;2.00;;
80179;SDS011;69505;52.134;5.438;2023-06-14T06:32:33;4.38;;;1.70;;
80179;SDS011;69505;52.134;5.438;2023-06-14T06:35:00;4.85;;;1.67;;
80179;SDS011;69505;52.134;5.438;2023-06-14T06:37:26;5.40;;;2.00;;
80179;SDS011;69505;52.134;5.438;2023-06-14T06:39:53;3.97;;;1.88;;
80179;SDS011;69505;52.134;5.438;2023-06-14T06:42:20;5.93;;;1.65;;
80179;SDS011;69505;52.134;5.438;2023-06-14T06:44:47;5.65;;;2.10;;
80179;SDS011;69505;52.134;5.438;2023-06-14T06:47:13;2.95;;;1.60;;
80179;SDS011;69505;52.134;5.438;2023-06-14T06:49:40;3.28;;;1.80;;
80179;SDS011;69505;52.134;5.438;2023-06-14T06:52:07;3.20;;;1.80;;
80179;SDS011;69505;52.134;5.438;2023-06-14T06:54:34;5.13;;;2.38;;
80179;SDS011;69505;52.134;5.438;2023-06-14T06:57:01;5.05;;;2.08;;
80179;SDS011;69505;52.134;5.438;2023-06-14T06:59:27;7.15;;;1.95;;
80179;SDS011;69505;52.134;5.438;2023-06-14T07:01:54;5.72;;;2.20;;
80179;SDS011;69505;52.134;5.438;2023-06-14T07:04:21;5.20;;;1.90;;
80179;SDS011;69505;52.134;5.438;2023-06-14T07:06:48;5.25;;;2.00;;
80179;SDS011;69505;52.134;5.438;2023-06-14T07:09:14;3.42;;;1.80;;
80179;SDS011;69505;52.134;5.438;2023-06-14T07:11:43;4.95;;;1.70;;
80179;SDS011;69505;52.134;5.438;2023-06-14T07:14:10;2.83;;;1.67;;
80179;SDS011;69505;52.134;5.438;2023-06-14T07:16:37;3.42;;;1.58;;
80179;SDS011;69505;52.134;5.438;2023-06-14T07:19:04;5.40;;;1.92;;
80179;SDS011;69505;52.134;5.438;2023-06-14T07:21:30;5.13;;;2.17;;
80179;SDS011;69505;52.134;5.438;2023-06-14T07:23:57;3.40;;;1.73;;
80179;SDS011;69505;52.134;5.438;2023-06-14T07:26:24;5.70;;;1.67;;
80179;SDS011;69505;52.134;5.438;2023-06-14T07:28:51;4.05;;;1.63;;
80179;SDS011;69505;52.134;5.438;2023-06-14T07:31:18;5.10;;;1.70;;
80179;SDS011;69505;52.134;5.438;2023-06-14T07:33:45;4.40;;;1.65;;
80179;SDS011;69505;52.134;5.438;2023-06-14T07:36:12;4.47;;;1.60;;
80179;SDS011;69505;52.134;5.438;2023-06-14T07:38:38;7.30;;;1.58;;
80179;SDS011;69505;52.134;5.438;2023-06-14T07:41:07;2.80;;;1.50;;
80179;SDS011;69505;52.134;5.438;2023-06-14T07:43:33;5.68;;;1.60;;
80179;SDS011;69505;52.134;5.438;2023-06-14T07:46:00;6.80;;;1.48;;
80179;SDS011;69505;52.134;5.438;2023-06-14T07:48:33;3.38;;;1.20;;
80179;SDS011;69505;52.134;5.438;2023-06-14T07:51:01;8.35;;;1.40;;
80179;SDS011;69505;52.134;5.438;2023-06-14T07:53:27;9.20;;;1.33;;
80179;SDS011;69505;52.134;5.438;2023-06-14T07:55:54;5.38;;;1.35;;
80179;SDS011;69505;52.134;5.438;2023-06-14T07:58:21;3.05;;;1.27;;
80179;SDS011;69505;52.134;5.438;2023-06-14T08:00:48;4.43;;;1.20;;
80179;SDS011;69505;52.134;5.438;2023-06-14T08:03:14;5.82;;;1.10;;
80179;SDS011;69505;52.134;5.438;2023-06-14T08:05:41;2.60;;;1.10;;
80179;SDS011;69505;52.134;5.438;2023-06-14T08:08:07;3.80;;;1.30;;
80179;SDS011;69505;52.134;5.438;2023-06-14T08:10:34;6.72;;;1.23;;
80179;SDS011;69505;52.134;5.438;2023-06-14T08:13:01;4.57;;;1.23;;
80179;SDS011;69505;52.134;5.438;2023-06-14T08:15:27;3.92;;;1.10;;
80179;SDS011;69505;52.134;5.438;2023-06-14T08:17:54;3.45;;;1.00;;
80179;SDS011;69505;52.134;5.438;2023-06-14T08:20:21;1.83;;;0.90;;
80179;SDS011;69505;52.134;5.438;2023-06-14T08:22:48;3.97;;;1.00;;
80179;SDS011;69505;52.134;5.438;2023-06-14T08:25:14;3.72;;;1.10;;
80179;SDS011;69505;52.134;5.438;2023-06-14T08:27:41;4.53;;;1.00;;
80179;SDS011;69505;52.134;5.438;2023-06-14T08:30:08;3.70;;;1.00;;
80179;SDS011;69505;52.134;5.438;2023-06-14T08:32:36;2.15;;;0.90;;
80179;SDS011;69505;52.134;5.438;2023-06-14T08:35:03;2.13;;;0.80;;
80179;SDS011;69505;52.134;5.438;2023-06-14T08:37:31;5.40;;;1.00;;
80179;SDS011;69505;52.134;5.438;2023-06-14T08:40:00;7.22;;;1.13;;
80179;SDS011;69505;52.134;5.438;2023-06-14T08:44:57;2.90;;;0.90;;
80179;SDS011;69505;52.134;5.438;2023-06-14T08:47:24;5.43;;;0.90;;
80179;SDS011;69505;52.134;5.438;2023-06-14T08:49:53;3.58;;;0.90;;
80179;SDS011;69505;52.134;5.438;2023-06-14T08:52:23;3.45;;;1.00;;
80179;SDS011;69505;52.134;5.438;2023-06-14T08:54:56;3.60;;;0.90;;
80179;SDS011;69505;52.134;5.438;2023-06-14T08:57:25;2.75;;;0.90;;
80179;SDS011;69505;52.134;5.438;2023-06-14T08:59:56;1.85;;;1.00;;
80179;SDS011;69505;52.134;5.438;2023-06-14T09:02:23;4.00;;;0.90;;
80179;SDS011;69505;52.134;5.438;2023-06-14T09:04:51;2.80;;;1.10;;
80179;SDS011;69505;52.134;5.438;2023-06-14T09:07:18;2.78;;;0.98;;
80179;SDS011;69505;52.134;5.438;2023-06-14T09:09:44;2.08;;;0.70;;
80179;SDS011;69505;52.134;5.438;2023-06-14T09:12:31;2.92;;;0.90;;
80179;SDS011;69505;52.134;5.438;2023-06-14T09:14:58;2.13;;;0.88;;
80179;SDS011;69505;52.134;5.438;2023-06-14T09:17:25;1.70;;;0.90;;
80179;SDS011;69505;52.134;5.438;2023-06-14T09:19:53;3.70;;;1.00;;
80179;SDS011;69505;52.134;5.438;2023-06-14T09:22:21;2.28;;;1.20;;
80179;SDS011;69505;52.134;5.438;2023-06-14T09:24:48;2.10;;;0.98;;
80179;SDS011;69505;52.134;5.438;2023-06-14T09:27:15;2.83;;;0.80;;
80179;SDS011;69505;52.134;5.438;2023-06-14T09:29:42;2.28;;;0.80;;
80179;SDS011;69505;52.134;5.438;2023-06-14T09:32:08;2.55;;;0.90;;
80179;SDS011;69505;52.134;5.438;2023-06-14T09:34:35;2.85;;;0.70;;
80179;SDS011;69505;52.134;5.438;2023-06-14T09:37:03;1.92;;;0.70;;
80179;SDS011;69505;52.134;5.438;2023-06-14T09:39:30;3.17;;;0.77;;
80179;SDS011;69505;52.134;5.438;2023-06-14T09:41:57;2.85;;;0.85;;
80179;SDS011;69505;52.134;5.438;2023-06-14T09:44:23;2.40;;;0.75;;
80179;SDS011;69505;52.134;5.438;2023-06-14T09:46:55;1.73;;;0.70;;
80179;SDS011;69505;52.134;5.438;2023-06-14T09:49:22;2.50;;;0.80;;
80179;SDS011;69505;52.134;5.438;2023-06-14T09:51:50;6.45;;;1.02;;
80179;SDS011;69505;52.134;5.438;2023-06-14T09:54:20;3.38;;;0.98;;
80179;SDS011;69505;52.134;5.438;2023-06-14T09:56:49;2.17;;;1.00;;
80179;SDS011;69505;52.134;5.438;2023-06-14T09:59:21;4.63;;;1.23;;
80179;SDS011;69505;52.134;5.438;2023-06-14T10:01:56;4.70;;;0.90;;
80179;SDS011;69505;52.134;5.438;2023-06-14T10:04:24;2.45;;;0.95;;
80179;SDS011;69505;52.134;5.438;2023-06-14T10:06:53;4.10;;;0.82;;
80179;SDS011;69505;52.134;5.438;2023-06-14T10:09:21;3.72;;;1.10;;
80179;SDS011;69505;52.134;5.438;2023-06-14T10:11:48;3.72;;;0.90;;
80179;SDS011;69505;52.134;5.438;2023-06-14T10:14:15;3.40;;;1.00;;
80179;SDS011;69505;52.134;5.438;2023-06-14T10:17:20;2.05;;;0.77;;
80179;SDS011;69505;52.134;5.438;2023-06-14T10:19:51;3.05;;;0.80;;
80179;SDS011;69505;52.134;5.438;2023-06-14T10:22:32;2.58;;;0.80;;
80179;SDS011;69505;52.134;5.438;2023-06-14T10:25:06;4.90;;;0.80;;
80179;SDS011;69505;52.134;5.438;2023-06-14T10:27:38;2.10;;;1.05;;
80179;SDS011;69505;52.134;5.438;2023-06-14T10:30:07;1.90;;;0.73;;
80179;SDS011;69505;52.134;5.438;2023-06-14T10:32:34;3.88;;;0.80;;
80179;SDS011;69505;52.134;5.438;2023-06-14T10:35:04;4.18;;;0.98;;
80179;SDS011;69505;52.134;5.438;2023-06-14T10:37:33;2.92;;;0.90;;
80179;SDS011;69505;52.134;5.438;2023-06-14T10:40:00;3.35;;;0.98;;
80179;SDS011;69505;52.134;5.438;2023-06-14T10:42:32;3.20;;;0.80;;
80179;SDS011;69505;52.134;5.438;2023-06-14T10:45:00;3.20;;;1.20;;
80179;SDS011;69505;52.134;5.438;2023-06-14T10:52:37;5.65;;;0.77;;
80179;SDS011;69505;52.134;5.438;2023-06-14T10:55:06;3.97;;;0.90;;
80179;SDS011;69505;52.134;5.438;2023-06-14T11:00:21;3.67;;;1.00;;
80179;SDS011;69505;52.134;5.438;2023-06-14T11:05:42;2.35;;;0.80;;
80179;SDS011;69505;52.134;5.438;2023-06-14T11:11:12;2.38;;;0.90;;
80179;SDS011;69505;52.134;5.438;2023-06-14T11:13:41;1.83;;;0.80;;
80179;SDS011;69505;52.134;5.438;2023-06-14T11:16:13;2.80;;;0.80;;
80179;SDS011;69505;52.134;5.438;2023-06-14T11:18:41;3.72;;;0.80;;
80179;SDS011;69505;52.134;5.438;2023-06-14T11:21:10;2.40;;;1.02;;
80179;SDS011;69505;52.134;5.438;2023-06-14T11:23:36;1.60;;;0.68;;
80179;SDS011;69505;52.134;5.438;2023-06-14T11:26:03;1.77;;;0.90;;
80179;SDS011;69505;52.134;5.438;2023-06-14T11:28:39;3.83;;;1.38;;
80179;SDS011;69505;52.134;5.438;2023-06-14T11:31:07;1.95;;;0.90;;
80179;SDS011;69505;52.134;5.438;2023-06-14T11:33:34;3.40;;;0.90;;
80179;SDS011;69505;52.134;5.438;2023-06-14T11:36:01;4.22;;;1.00;;
80179;SDS011;69505;52.134;5.438;2023-06-14T11:38:30;3.67;;;1.05;;
80179;SDS011;69505;52.134;5.438;2023-06-14T11:41:01;2.65;;;0.80;;
80179;SDS011;69505;52.134;5.438;2023-06-14T11:43:28;6.57;;;1.17;;
80179;SDS011;69505;52.134;5.438;2023-06-14T11:45:55;4.18;;;0.80;;
80179;SDS011;69505;52.134;5.438;2023-06-14T11:48:37;5.95;;;1.00;;
80179;SDS011;69505;52.134;5.438;2023-06-14T11:51:05;2.00;;;0.80;;
80179;SDS011;69505;52.134;5.438;2023-06-14T11:53:31;2.92;;;0.80;;
80179;SDS011;69505;52.134;5.438;2023-06-14T11:55:59;3.83;;;1.20;;
80179;SDS011;69505;52.134;5.438;2023-06-14T11:58:26;3.22;;;0.98;;
80179;SDS011;69505;52.134;5.438;2023-06-14T12:00:53;3.35;;;0.90;;
80179;SDS011;69505;52.134;5.438;2023-06-14T12:03:24;2.28;;;0.77;;
80179;SDS011;69505;52.134;5.438;2023-06-14T12:06:07;2.47;;;0.85;;
80179;SDS011;69505;52.134;5.438;2023-06-14T12:08:36;3.75;;;0.90;;
80179;SDS011;69505;52.134;5.438;2023-06-14T12:11:10;3.80;;;0.90;;
80179;SDS011;69505;52.134;5.438;2023-06-14T12:13:38;2.67;;;0.88;;
80179;SDS011;69505;52.134;5.438;2023-06-14T12:16:09;1.80;;;1.00;;
80179;SDS011;69505;52.134;5.438;2023-06-14T12:18:38;2.13;;;0.90;;
80179;SDS011;69505;52.134;5.438;2023-06-14T12:21:07;2.35;;;0.90;;
80179;SDS011;69505;52.134;5.438;2023-06-14T12:23:53;3.35;;;0.80;;
80179;SDS011;69505;52.134;5.438;2023-06-14T12:26:19;2.20;;;1.10;;
80179;SDS011;69505;52.134;5.438;2023-06-14T12:28:47;6.60;;;1.05;;
80179;SDS011;69505;52.134;5.438;2023-06-14T12:31:14;3.92;;;1.00;;
80179;SDS011;69505;52.134;5.438;2023-06-14T12:36:09;3.60;;;1.67;;
80179;SDS011;69505;52.134;5.438;2023-06-14T12:38:37;4.00;;;0.90;;
80179;SDS011;69505;52.134;5.438;2023-06-14T12:41:03;3.08;;;0.93;;
80179;SDS011;69505;52.134;5.438;2023-06-14T12:43:30;2.35;;;0.65;;
80179;SDS011;69505;52.134;5.438;2023-06-14T12:45:57;1.60;;;0.82;;
80179;SDS011;69505;52.134;5.438;2023-06-14T12:48:24;2.22;;;0.85;;
80179;SDS011;69505;52.134;5.438;2023-06-14T12:50:51;5.18;;;0.80;;
80179;SDS011;69505;52.134;5.438;2023-06-14T12:53:17;4.15;;;0.82;;
80179;SDS011;69505;52.134;5.438;2023-06-14T12:55:44;2.90;;;0.90;;
80179;SDS011;69505;52.134;5.438;2023-06-14T12:58:10;5.47;;;0.90;;
80179;SDS011;69505;52.134;5.438;2023-06-14T13:00:40;3.53;;;0.70;;
80179;SDS011;69505;52.134;5.438;2023-06-14T13:03:07;5.55;;;0.80;;
80179;SDS011;69505;52.134;5.438;2023-06-14T13:05:33;3.65;;;0.77;;
80179;SDS011;69505;52.134;5.438;2023-06-14T13:08:00;1.77;;;0.70;;
80179;SDS011;69505;52.134;5.438;2023-06-14T13:10:27;5.68;;;0.82;;
80179;SDS011;69505;52.134;5.438;2023-06-14T13:12:54;2.60;;;0.88;;
80179;SDS011;69505;52.134;5.438;2023-06-14T13:15:21;2.38;;;0.80;;
80179;SDS011;69505;52.134;5.438;2023-06-14T13:17:47;2.03;;;0.85;;
80179;SDS011;69505;52.134;5.438;2023-06-14T13:20:15;7.38;;;1.05;;
80179;SDS011;69505;52.134;5.438;2023-06-14T13:22:45;3.67;;;1.00;;
80179;SDS011;69505;52.134;5.438;2023-06-14T13:25:12;2.72;;;1.05;;
80179;SDS011;69505;52.134;5.438;2023-06-14T13:27:39;3.97;;;0.70;;
80179;SDS011;69505;52.134;5.438;2023-06-14T13:30:06;4.68;;;0.93;;
80179;SDS011;69505;52.134;5.438;2023-06-14T13:32:33;8.38;;;1.00;;
80179;SDS011;69505;52.134;5.438;2023-06-14T13:35:00;1.95;;;1.00;;
80179;SDS011;69505;52.134;5.438;2023-06-14T13:37:27;5.32;;;1.05;;
80179;SDS011;69505;52.134;5.438;2023-06-14T13:39:53;2.45;;;1.00;;
80179;SDS011;69505;52.134;5.438;2023-06-14T13:42:20;1.90;;;0.90;;
80179;SDS011;69505;52.134;5.438;2023-06-14T13:44:47;3.65;;;1.10;;
80179;SDS011;69505;52.134;5.438;2023-06-14T13:47:13;4.03;;;1.10;;
80179;SDS011;69505;52.134;5.438;2023-06-14T13:49:40;5.10;;;1.00;;
80179;SDS011;69505;52.134;5.438;2023-06-14T13:52:07;4.55;;;1.00;;
80179;SDS011;69505;52.134;5.438;2023-06-14T13:54:33;4.82;;;0.80;;
80179;SDS011;69505;52.134;5.438;2023-06-14T13:57:00;5.18;;;0.90;;
80179;SDS011;69505;52.134;5.438;2023-06-14T13:59:26;3.55;;;0.98;;
80179;SDS011;69505;52.134;5.438;2023-06-14T14:01:53;2.03;;;1.05;;
80179;SDS011;69505;52.134;5.438;2023-06-14T14:04:20;3.22;;;0.80;;
80179;SDS011;69505;52.134;5.438;2023-06-14T14:06:46;3.45;;;0.90;;
80179;SDS011;69505;52.134;5.438;2023-06-14T14:11:41;3.53;;;0.75;;
80179;SDS011;69505;52.134;5.438;2023-06-14T14:14:08;2.92;;;0.82;;
80179;SDS011;69505;52.134;5.438;2023-06-14T14:16:36;1.83;;;0.63;;
80179;SDS011;69505;52.134;5.438;2023-06-14T14:19:04;1.98;;;0.80;;
80179;SDS011;69505;52.134;5.438;2023-06-14T14:21:30;4.80;;;0.68;;
80179;SDS011;69505;52.134;5.438;2023-06-14T14:23:58;6.43;;;0.75;;
80179;SDS011;69505;52.134;5.438;2023-06-14T14:26:24;2.85;;;0.70;;
80179;SDS011;69505;52.134;5.438;2023-06-14T14:28:52;2.28;;;1.02;;
80179;SDS011;69505;52.134;5.438;2023-06-14T14:31:18;5.78;;;0.90;;
80179;SDS011;69505;52.134;5.438;2023-06-14T14:33:45;2.05;;;0.70;;
80179;SDS011;69505;52.134;5.438;2023-06-14T14:36:11;3.03;;;0.70;;
80179;SDS011;69505;52.134;5.438;2023-06-14T14:38:39;1.73;;;0.73;;
80179;SDS011;69505;52.134;5.438;2023-06-14T14:41:06;2.03;;;0.70;;
80179;SDS011;69505;52.134;5.438;2023-06-14T14:43:32;3.70;;;0.90;;
80179;SDS011;69505;52.134;5.438;2023-06-14T14:45:59;4.10;;;0.75;;
80179;SDS011;69505;52.134;5.438;2023-06-14T14:48:26;2.20;;;0.88;;
80179;SDS011;69505;52.134;5.438;2023-06-14T14:50:53;1.67;;;0.80;;
80179;SDS011;69505;52.134;5.438;2023-06-14T14:53:19;2.05;;;0.60;;
80179;SDS011;69505;52.134;5.438;2023-06-14T14:55:46;3.60;;;0.63;;
80179;SDS011;69505;52.134;5.438;2023-06-14T14:58:13;4.75;;;0.63;;
80179;SDS011;69505;52.134;5.438;2023-06-14T15:00:40;2.08;;;0.70;;
80179;SDS011;69505;52.134;5.438;2023-06-14T15:03:07;4.85;;;0.80;;
80179;SDS011;69505;52.134;5.438;2023-06-14T15:05:33;4.15;;;0.70;;
80179;SDS011;69505;52.134;5.438;2023-06-14T15:08:00;2.20;;;0.70;;
80179;SDS011;69505;52.134;5.438;2023-06-14T15:10:26;1.63;;;0.70;;
80179;SDS011;69505;52.134;5.438;2023-06-14T15:12:53;2.65;;;0.73;;
80179;SDS011;69505;52.134;5.438;2023-06-14T15:15:19;3.05;;;0.65;;
80179;SDS011;69505;52.134;5.438;2023-06-14T15:17:46;3.28;;;0.80;;
80179;SDS011;69505;52.134;5.438;2023-06-14T15:20:13;3.15;;;0.75;;